Flight Track Log - Related Links

Times and Time Zones

All times are in EDT time to prevent confusion due to time zone crossing. See the UAL4202 flight status page for this flight to view local times or setup timezone preferences in your user account.

Time Position Orientation Groundspeed Altitude Reporting Facility
EDT Latitude Longitude Course Direction KTS MPH feet Rate Location/Type
Mon 05:25:01 PM 40.6667 -74.1833 270° West 161 185 500  Level New York TRACON
Mon 05:26:01 PM 40.6333 -74.2000 201° Southwest 199 229 2,400 1,947 Climbing New York TRACON
Mon 05:26:55 PM 40.6333 -74.2833 270° West 249 287 4,200 2,158 Climbing New York TRACON
Mon 05:27:55 PM 40.6833 -74.3500 315° West 251 289 6,500 2,050 Climbing New York TRACON
Mon 05:28:00 PM 40.6834 -74.6852 270° West  Level FlightAware Approximate
Mon 05:28:55 PM 40.7333 -74.4167 315° West 271 312 8,300  Level New York TRACON
Mon 05:29:00 PM 40.6834 -74.8149 270° West  Level FlightAware Approximate
Mon 05:29:55 PM 40.7833 -74.5000 308° West 294 338 10,000  Level New York TRACON
Mon 05:30:00 PM 40.6833 -74.9445 270° West  Level FlightAware Approximate
Mon 05:32:11 PM 40.7506 -74.7567 261° West 335 386 12,000  Level New York Center
Mon 05:33:11 PM 40.7256 -74.8783 255° West 350 403 13,600 1,488 Climbing New York Center
Mon 05:34:12 PM 40.7006 -74.9947 254° West 345 397 15,000 1,008 Climbing New York Center
Mon 05:35:10 PM 40.6672 -75.1131 250° West 345 397 15,600 661 Climbing New York Center
Mon 05:36:10 PM 40.6197 -75.2139 238° Southwest 351 404 16,300 843 Climbing New York Center
Mon 05:37:11 PM 40.5694 -75.3281 240° Southwest 369 425 17,300 843 Climbing New York Center
Mon 05:38:11 PM 40.5150 -75.4447 238° Southwest 375 432 18,000 958 Climbing New York Center
Mon 05:39:10 PM 40.4578 -75.5717 239° Southwest 375 432 19,200 1,300 Climbing New York Center
Mon 05:40:11 PM 40.4097 -75.6747 239° Southwest 375 432 20,600 1,438 Climbing New York Center
Mon 05:41:11 PM 40.3589 -75.7908 240° Southwest 370 426 22,100 1,488 Climbing New York Center
Mon 05:42:12 PM 40.3042 -75.8986 236° Southwest 370 426 23,600 1,240 Climbing New York Center
Mon 05:43:12 PM 40.2536 -76.0089 239° Southwest 370 426 24,600 814 Climbing New York Center
Mon 05:44:10 PM 40.2008 -76.1192 238° Southwest 370 426 25,200 559 Climbing New York Center
Mon 05:45:10 PM 40.1472 -76.2428 240° Southwest 375 432 25,700 744 Climbing New York Center
Mon 05:46:11 PM 40.0936 -76.3606 239° Southwest 382 440 26,700 934 Climbing New York Center
Mon 05:47:12 PM 40.0403 -76.4758 239° Southwest 382 440 27,600 942 Climbing New York Center
Mon 05:48:12 PM 39.9867 -76.5878 238° Southwest 377 434 28,600 1,049 Climbing New York Center
Mon 05:50:15 PM 39.8719 -76.8297 238° Southwest 378 435 30,800 1,049 Climbing Washington Center
Mon 05:51:15 PM 39.8208 -76.9394 239° Southwest 378 435 31,800 1,000 Climbing Washington Center
Mon 05:52:15 PM 39.7694 -77.0467 238° Southwest 367 422 32,800 1,000 Climbing Washington Center
Mon 05:53:15 PM 39.7181 -77.1561 239° Southwest 361 415 33,800 1,000 Climbing Washington Center
Mon 05:54:15 PM 39.6667 -77.2628 238° Southwest 361 415 34,800 1,000 Climbing Washington Center
Mon 05:55:15 PM 39.6194 -77.3642 239° Southwest 351 404 35,800 600 Climbing Washington Center
Mon 05:56:15 PM 39.5700 -77.4678 238° Southwest 346 398 36,000 100 Climbing Washington Center
Mon 05:57:15 PM 39.5181 -77.5742 238° Southwest 346 398 36,000  Level Washington Center
Mon 05:58:15 PM 39.4619 -77.6883 238° Southwest 351 404 36,000  Level Washington Center
Mon 05:59:15 PM 39.4081 -77.8022 239° Southwest 364 419 36,000  Level Washington Center
Mon 06:00:15 PM 39.3556 -77.9267 241° Southwest 377 434 36,000  Level Washington Center
Mon 06:01:15 PM 39.3072 -78.0514 243° Southwest 388 447 36,000  Level Washington Center
Mon 06:02:15 PM 39.2567 -78.1756 242° Southwest 388 447 36,000  Level Washington Center
Mon 06:03:15 PM 39.2106 -78.2864 242° Southwest 393 452 36,000  Level Washington Center
Mon 06:04:15 PM 39.1597 -78.4103 242° Southwest 393 452 36,000  Level Washington Center
Mon 06:05:15 PM 39.1089 -78.5342 242° Southwest 393 452 36,000  Level Washington Center
Mon 06:06:15 PM 39.0597 -78.6631 244° Southwest 398 458 36,000  Level Washington Center
Mon 06:07:15 PM 39.0108 -78.7839 243° Southwest 398 458 36,000  Level Washington Center
Mon 06:08:15 PM 38.9572 -78.9097 241° Southwest 398 458 36,000  Level Washington Center
Mon 06:09:15 PM 38.9369 -79.0422 259° West 393 452 36,000  Level Washington Center
Mon 06:10:15 PM 38.9225 -79.1750 262° West 388 447 36,000  Level Washington Center
Mon 06:11:15 PM 38.9100 -79.3158 264° West 388 447 36,000  Level Washington Center
Mon 06:12:15 PM 38.8933 -79.4483 261° West 388 447 36,000  Level Washington Center
Mon 06:13:15 PM 38.8842 -79.6025 266° West 388 447 36,000  Level Washington Center
Mon 06:14:15 PM 38.8711 -79.7406 263° West 393 452 36,000  Level Washington Center
Mon 06:15:15 PM 38.8789 -79.8717 274° West 381 438 36,000  Level Washington Center
Mon 06:16:15 PM 38.9075 -80.0014 286° West 381 438 36,000  Level Washington Center
Mon 06:18:01 PM 38.9561 -80.2239 286° West 381 438 36,000  Level Indianapolis Center
Mon 06:19:03 PM 38.9797 -80.3572 283° West 383 441 36,000  Level Indianapolis Center
Mon 06:20:05 PM 38.9831 -80.4939 272° West 383 441 36,000  Level Indianapolis Center
Mon 06:21:07 PM 38.9942 -80.6283 276° West 381 438 36,000  Level Indianapolis Center
Mon 06:22:09 PM 39.0069 -80.7636 277° West 382 440 36,000  Level Indianapolis Center
Mon 06:23:11 PM 39.0178 -80.8981 276° West 380 437 36,000  Level Indianapolis Center
Mon 06:24:13 PM 39.0311 -81.0600 276° West 381 438 36,000  Level Indianapolis Center
Mon 06:25:15 PM 39.0431 -81.1958 277° West 384 442 36,000  Level Indianapolis Center
Mon 06:26:17 PM 39.0533 -81.3306 276° West 383 441 36,000  Level Indianapolis Center
Mon 06:27:19 PM 39.0642 -81.4650 276° West 381 438 36,000  Level Indianapolis Center
Mon 06:28:21 PM 39.0753 -81.6017 276° West 382 440 36,000  Level Indianapolis Center
Mon 06:29:23 PM 39.0869 -81.7619 275° West 383 441 36,000  Level Indianapolis Center
Mon 06:30:25 PM 39.0972 -81.8967 276° West 381 438 36,000  Level Indianapolis Center
Mon 06:31:27 PM 39.1064 -82.0328 275° West 383 441 36,000  Level Indianapolis Center
Mon 06:32:29 PM 39.1161 -82.1692 275° West 383 441 36,000  Level Indianapolis Center
Mon 06:33:31 PM 39.1267 -82.3053 276° West 384 442 36,000  Level Indianapolis Center
Mon 06:34:33 PM 39.1350 -82.4417 275° West 383 441 36,000  Level Indianapolis Center
Mon 06:35:35 PM 39.1469 -82.6053 275° West 382 440 36,000  Level Indianapolis Center
Mon 06:36:37 PM 39.1556 -82.7414 275° West 382 440 36,000  Level Indianapolis Center
Mon 06:37:39 PM 39.1647 -82.8769 275° West 380 437 36,000  Level Indianapolis Center
Mon 06:38:41 PM 39.1731 -83.0131 275° West 383 441 36,000  Level Indianapolis Center
Mon 06:39:43 PM 39.1833 -83.1608 275° West 379 436 36,000  Level Indianapolis Center
Mon 06:40:45 PM 39.1917 -83.2989 274° West 381 438 36,000  Level Indianapolis Center
Mon 06:41:47 PM 39.2006 -83.4392 275° West 381 438 36,000  Level Indianapolis Center
Mon 06:42:49 PM 39.2089 -83.5733 275° West 380 437 36,000  Level Indianapolis Center
Mon 06:43:51 PM 39.2169 -83.7081 274° West 374 430 36,000  Level Indianapolis Center
Mon 06:44:53 PM 39.2239 -83.8400 274° West 367 422 36,000  Level Indianapolis Center
Mon 06:45:55 PM 39.2322 -83.9942 274° West 365 420 36,000  Level Indianapolis Center
Mon 06:46:57 PM 39.2403 -84.1283 274° West 370 426 36,000  Level Indianapolis Center
Mon 06:47:59 PM 39.2478 -84.2664 274° West 379 436 36,000  Level Indianapolis Center
Mon 06:49:01 PM 39.2556 -84.4042 274° West 381 438 36,000  Level Indianapolis Center
Mon 06:50:03 PM 39.2631 -84.5400 274° West 377 434 36,000  Level Indianapolis Center
Mon 06:51:05 PM 39.2694 -84.6767 273° West 378 435 36,000  Level Indianapolis Center
Mon 06:52:06 PM 39.2764 -84.8133 274° West 378 435 36,000  Level Indianapolis Center
Mon 06:53:08 PM 39.2817 -84.9489 273° West 375 432 36,000  Level Indianapolis Center
Mon 06:54:10 PM 39.2889 -85.0842 274° West 374 430 36,000  Level Indianapolis Center
Mon 06:55:12 PM 39.2953 -85.2419 273° West 374 430 36,000  Level Indianapolis Center
Mon 06:56:14 PM 39.3017 -85.3764 274° West 372 428 36,000  Level Indianapolis Center
Mon 06:57:15 PM 39.3078 -85.5122 273° West 375 432 36,000  Level Indianapolis Center
Mon 06:58:17 PM 39.3128 -85.6428 273° West 371 427 36,000  Level Indianapolis Center
Mon 06:59:19 PM 39.3189 -85.7772 273° West 372 428 36,000  Level Indianapolis Center
Mon 07:00:21 PM 39.3261 -85.9128 274° West 377 434 36,000  Level Indianapolis Center
Mon 07:01:22 PM 39.3306 -86.0456 273° West 373 429 36,000  Level Indianapolis Center
Mon 07:02:24 PM 39.3358 -86.1794 273° West 374 430 36,000  Level Indianapolis Center
Mon 07:03:26 PM 39.3411 -86.3403 272° West 373 429 36,000  Level Indianapolis Center
Mon 07:04:28 PM 39.3461 -86.4725 273° West 371 427 36,000  Level Indianapolis Center
Mon 07:05:29 PM 39.3503 -86.6086 272° West 377 434 36,000  Level Indianapolis Center
Mon 07:06:31 PM 39.3544 -86.7417 272° West 373 429 36,000 -242 Level Indianapolis Center
Mon 07:07:33 PM 39.3594 -86.8767 273° West 376 433 35,500 -726 Descending Indianapolis Center
Mon 07:08:35 PM 39.3636 -87.0128 272° West 379 436 34,500 -976 Descending Indianapolis Center
Mon 07:09:36 PM 39.3681 -87.1461 273° West 375 432 33,500 -1,073 Descending Indianapolis Center
Mon 07:10:38 PM 39.3725 -87.3036 272° West 368 423 32,300 -1,065 Descending Indianapolis Center
Mon 07:11:40 PM 39.3756 -87.4406 272° West 378 435 31,300 -976 Descending Indianapolis Center
Mon 07:12:41 PM 39.3797 -87.5819 272° West 391 450 30,300 -634 Descending Indianapolis Center
Mon 07:13:43 PM 39.3825 -87.7236 271° West 393 452 30,000 -581 Descending Indianapolis Center
Mon 07:14:45 PM 39.3867 -87.8644 272° West 394 453 29,100 -1,097 Descending Indianapolis Center
Mon 07:15:16 PM 39.3897 -87.9511 273° West 393 452 28,300 -695 Descending Kansas City Center
Mon 07:16:20 PM 39.3794 -88.0928 265° West 396 456 28,000 -145 Descending Kansas City Center
Mon 07:17:20 PM 39.3450 -88.2314 252° West 402 463 28,000  Level Kansas City Center
Mon 07:18:24 PM 39.3075 -88.3658 250° West 398 458 28,000  Level Kansas City Center
Mon 07:19:25 PM 39.2722 -88.5006 251° West 397 457 28,000  Level Kansas City Center
Mon 07:20:26 PM 39.2311 -88.6519 251° West 396 456 28,000  Level Kansas City Center
Mon 07:21:30 PM 39.1950 -88.7856 251° West 396 456 28,000 -240 Level Kansas City Center
Mon 07:22:31 PM 39.1597 -88.9136 250° West 386 444 27,500 -1,306 Descending Kansas City Center
Mon 07:23:34 PM 39.1247 -89.0500 252° West 361 415 25,300 -1,984 Descending Kansas City Center
Mon 07:24:35 PM 39.0917 -89.1681 250° West 351 404 23,400 -1,826 Descending Kansas City Center
Mon 07:25:06 PM 39.0778 -89.1725 194° South 327 376 22,500 -1,765 Descending FAA TRACON SMA TRACON (SMA)
Mon 07:25:26 PM 39.0708 -89.2075 256° West 328 377 21,900 -1,650 Descending FAA TRACON SMA TRACON (SMA)
Mon 07:25:46 PM 39.0625 -89.2417 253° West 325 374 21,400 -1,800 Descending FAA TRACON SMA TRACON (SMA)
Mon 07:26:06 PM 39.0531 -89.2847 254° West 324 373 20,700 -1,800 Descending FAA TRACON SMA TRACON (SMA)
Mon 07:26:26 PM 39.0456 -89.3192 254° West 325 374 20,200 -1,500 Descending FAA TRACON SMA TRACON (SMA)
Mon 07:26:46 PM 39.0369 -89.3533 252° West 326 375 19,700 -1,800 Descending FAA TRACON SMA TRACON (SMA)
Mon 07:27:06 PM 39.0264 -89.3969 253° West 330 380 19,000 -1,950 Descending FAA TRACON SMA TRACON (SMA)
Mon 07:27:26 PM 39.0189 -89.4314 254° West 329 379 18,400 -1,950 Descending FAA TRACON SMA TRACON (SMA)
Mon 07:27:46 PM 39.0108 -89.4656 253° West 325 374 17,700 -1,800 Descending FAA TRACON SMA TRACON (SMA)
Mon 07:28:06 PM 39.0008 -89.5061 252° West 313 360 17,200 -1,500 Descending FAA TRACON SMA TRACON (SMA)
Mon 07:28:26 PM 38.9925 -89.5375 251° West 306 352 16,700 -1,500 Descending FAA TRACON SMA TRACON (SMA)
Mon 07:28:46 PM 38.9839 -89.5689 251° West 302 348 16,200 -1,800 Descending FAA TRACON SMA TRACON (SMA)
Mon 07:29:06 PM 38.9708 -89.6069 246° West 301 346 15,500 -1,800 Descending FAA TRACON SMA TRACON (SMA)
Mon 07:29:26 PM 38.9606 -89.6367 246° West 297 342 15,000 -1,650 Descending FAA TRACON SMA TRACON (SMA)
Mon 07:29:46 PM 38.9500 -89.6747 250° West 295 339 14,400 -1,500 Descending FAA TRACON SMA TRACON (SMA)
Mon 07:30:06 PM 38.9403 -89.7036 247° West 289 333 14,000 -1,231 Descending FAA TRACON SMA TRACON (SMA)
Mon 07:30:25 PM 38.9311 -89.7328 248° West 287 330 13,600 -1,077 Descending FAA TRACON SMA TRACON (SMA)
Mon 07:30:45 PM 38.9214 -89.7619 247° West 287 330 13,300 -1,317 Descending FAA TRACON SMA TRACON (SMA)
Mon 07:31:06 PM 38.9097 -89.7981 247° West 287 330 12,700 -1,500 Descending FAA TRACON SMA TRACON (SMA)
Mon 07:31:25 PM 38.9006 -89.8272 248° West 284 327 12,300 -1,231 Descending FAA TRACON SMA TRACON (SMA)
Mon 07:31:45 PM 38.8914 -89.8553 247° West 281 323 11,900 -1,171 Descending FAA TRACON SMA TRACON (SMA)
Mon 07:32:06 PM 38.8803 -89.8906 248° West 278 320 11,500 -1,200 Descending FAA TRACON SMA TRACON (SMA)
Mon 07:32:25 PM 38.8719 -89.9178 249° West 272 313 11,100 -1,231 Descending FAA TRACON SMA TRACON (SMA)
Mon 07:32:45 PM 38.8631 -89.9436 246° West 259 298 10,700 -1,317 Descending FAA TRACON SMA TRACON (SMA)
Mon 07:33:06 PM 38.8528 -89.9742 247° West 243 280 10,200 -1,350 Descending FAA TRACON SMA TRACON (SMA)
Mon 07:33:25 PM 38.8458 -89.9981 250° West 234 269 9,800 -1,077 Descending FAA TRACON SMA TRACON (SMA)
Mon 07:33:45 PM 38.8386 -90.0208 248° West 227 261 9,500 -1,024 Descending FAA TRACON SMA TRACON (SMA)
Mon 07:34:06 PM 38.8292 -90.0486 246° West 223 257 9,100 -1,050 Descending FAA TRACON SMA TRACON (SMA)
Mon 07:34:25 PM 38.8219 -90.0703 247° West 218 251 8,800 -900 Descending FAA TRACON SMA TRACON (SMA)
Mon 07:34:46 PM 38.8150 -90.0922 248° West 216 249 8,500 -1,024 Descending FAA TRACON SMA TRACON (SMA)
Mon 07:35:06 PM 38.8064 -90.1194 248° West 215 247 8,100 -769 Descending FAA TRACON SMA TRACON (SMA)
Mon 07:35:25 PM 38.7992 -90.1414 247° West 215 247 8,000 -308 Descending FAA TRACON SMA TRACON (SMA)
Mon 07:35:45 PM 38.7972 -90.1647 264° West 219 252 7,900 -732 Descending FAA TRACON SMA TRACON (SMA)
Mon 07:36:06 PM 38.8064 -90.1928 293° West 226 260 7,500 -1,050 Descending FAA TRACON SMA TRACON (SMA)
Mon 07:36:25 PM 38.8167 -90.2142 302° West 230 265 7,200 -769 Descending FAA TRACON SMA TRACON (SMA)
Mon 07:36:45 PM 38.8264 -90.2353 301° West 225 259 7,000 -439 Descending FAA TRACON SMA TRACON (SMA)
Mon 07:37:06 PM 38.8386 -90.2622 300° West 226 260 6,900 -600 Descending FAA TRACON SMA TRACON (SMA)
Mon 07:37:25 PM 38.8483 -90.2836 300° West 226 260 6,600 -1,385 Descending FAA TRACON SMA TRACON (SMA)
Mon 07:37:45 PM 38.8575 -90.3050 299° West 224 258 6,000 -1,756 Descending FAA TRACON SMA TRACON (SMA)
Mon 07:38:06 PM 38.8694 -90.3314 300° West 221 254 5,400 -1,350 Descending FAA TRACON SMA TRACON (SMA)
Mon 07:38:25 PM 38.8783 -90.3517 299° West 216 249 5,100 -923 Descending FAA TRACON SMA TRACON (SMA)
Mon 07:38:45 PM 38.8889 -90.3753 300° West 201 231 4,800 -878 Descending FAA TRACON SMA TRACON (SMA)
Mon 07:39:06 PM 38.8969 -90.3931 300° West 191 220 4,500 -900 Descending FAA TRACON SMA TRACON (SMA)
Mon 07:39:25 PM 38.9056 -90.4136 298° West 203 234 4,200 -923 Descending FAA TRACON SMA TRACON (SMA)
Mon 07:39:45 PM 38.9167 -90.4397 299° West 214 246 3,900 -439 Descending FAA TRACON SMA TRACON (SMA)
Mon 07:40:06 PM 38.9244 -90.4608 295° West 216 249 3,900  Level FAA TRACON SMA TRACON (SMA)
Mon 07:40:25 PM 38.9256 -90.4817 274° West 211 243 3,900 -462 Level FAA TRACON SMA TRACON (SMA)
Mon 07:40:45 PM 38.9119 -90.4978 223° Southwest 193 222 3,600 -1,171 Descending FAA TRACON SMA TRACON (SMA)
Mon 07:41:06 PM 38.8992 -90.5089 214° Southwest 179 206 3,100 -1,050 Descending FAA TRACON SMA TRACON (SMA)
Mon 07:41:25 PM 38.8858 -90.5203 214° Southwest 182 209 2,900 -308 Descending FAA TRACON SMA TRACON (SMA)
Mon 07:41:45 PM 38.8672 -90.5281 198° South 192 221 2,900  Level FAA TRACON SMA TRACON (SMA)
Mon 07:42:06 PM 38.8528 -90.5189 154° Southeast 195 224 2,900  Level FAA TRACON SMA TRACON (SMA)
Mon 07:42:25 PM 38.8389 -90.5078 148° Southeast 193 222 2,900  Level FAA TRACON SMA TRACON (SMA)
Mon 07:42:45 PM 38.8225 -90.4906 141° Southeast 198 228 2,900 -439 Level FAA TRACON SMA TRACON (SMA)
Mon 07:43:06 PM 38.8133 -90.4728 123° Southeast 197 227 2,600 -900 Descending FAA TRACON SMA TRACON (SMA)
Mon 07:43:25 PM 38.8044 -90.4553 123° Southeast 194 223 2,300 -923 Descending FAA TRACON SMA TRACON (SMA)
Mon 07:43:45 PM 38.7947 -90.4356 122° Southeast 174 200 2,000 -732 Descending FAA TRACON SMA TRACON (SMA)
Mon 07:44:06 PM 38.7878 -90.4219 123° Southeast 154 177 1,800 -750 Descending FAA TRACON SMA TRACON (SMA)
Mon 07:44:25 PM 38.7817 -90.4086 120° Southeast 142 163 1,500 -923 Descending FAA TRACON SMA TRACON (SMA)
Mon 07:44:45 PM 38.7736 -90.3925 123° Southeast 139 160 1,200 -732 Descending FAA TRACON SMA TRACON (SMA)
Mon 07:45:06 PM 38.7672 -90.3789 121° Southeast 142 163 1,000 -600 Descending FAA TRACON SMA TRACON (SMA)
Mon 07:45:25 PM 38.7603 -90.3656 124° Southeast 145 167 800 -615 Descending FAA TRACON SMA TRACON (SMA)
Mon 07:45:45 PM 38.7553 -90.3553 122° Southeast 147 169 600 -600 Descending FAA TRACON SMA TRACON (SMA)

Login

Don't have an account? Register now (free) for customized features, flight alerts, and more!